Time;durP1;ratioP1;P1;durP2;ratioP2;P2;SDS_P1;SDS_P2;PMS_P1;PMS_P2;Temp;Humidity;BMP_temperature;BMP_pressure;BME280_temperature;BME280_humidity;BME280_pressure;Samples;Min_cycle;Max_cycle;Signal;HPM_P1;HPM_P2
2022/10/30 00:00:16;;;;;;;25.60;13.45;;;;;;;10.57;100.00;99419.69;5041108;28;20463;-68
2022/10/30 00:02:46;;;;;;;25.23;12.70;;;;;;;10.43;100.00;99391.63;5055059;28;20060;-68
2022/10/30 00:05:12;;;;;;;20.33;13.23;;;;;;;10.47;100.00;99400.13;5055464;28;20098;-69
2022/10/30 00:07:38;;;;;;;24.17;13.00;;;;;;;10.59;100.00;99412.88;5055878;28;20447;-70
2022/10/30 00:10:04;;;;;;;21.92;13.45;;;;;;;10.58;100.00;99423.97;5058861;28;20044;-70
2022/10/30 00:12:29;;;;;;;34.38;12.07;;;;;;;10.49;100.00;99398.38;5056986;28;20040;-70
2022/10/30 00:14:55;;;;;;;34.03;13.50;;;;;;;10.58;100.00;99415.44;5056620;28;20499;-69
2022/10/30 00:17:20;;;;;;;16.55;12.05;;;;;;;10.58;100.00;99415.44;5058779;28;20067;-69
2022/10/30 00:19:46;;;;;;;24.08;12.70;;;;;;;10.45;100.00;99396.72;5058916;28;20048;-69
2022/10/30 00:22:11;;;;;;;54.58;16.02;;;;;;;10.53;100.00;99411.19;5055748;28;20437;-68
2022/10/30 00:24:37;;;;;;;22.48;12.15;;;;;;;10.46;100.00;99403.53;5054536;28;20041;-70
2022/10/30 00:27:02;;;;;;;36.95;13.70;;;;;;;10.46;100.00;99393.28;5055608;28;20047;-71
2022/10/30 00:29:28;;;;;;;30.90;13.90;;;;;;;10.56;100.00;99412.03;5057953;28;20106;-72
2022/10/30 00:31:54;;;;;;;63.30;14.88;;;;;;;10.56;100.00;99410.34;5021895;28;21611;-71
2022/10/30 00:34:19;;;;;;;53.20;14.05;;;;;;;10.54;100.00;99412.03;5054525;28;20036;-69
2022/10/30 00:36:45;;;;;;;36.83;12.88;;;;;;;10.50;100.00;99398.41;5056483;28;20119;-70
2022/10/30 00:39:11;;;;;;;136.27;19.58;;;;;;;10.49;100.00;99395.81;5057081;28;20540;-68
2022/10/30 00:41:38;;;;;;;178.32;20.77;;;;;;;10.26;100.00;99378.03;5055980;28;20055;-69
2022/10/30 00:44:42;;;;;;;263.20;25.27;;;;;;;10.34;100.00;99393.38;5054896;28;20048;-70
2022/10/30 00:47:18;;;;;;;199.57;21.92;;;;;;;10.26;100.00;99383.16;5059240;28;20127;-70
2022/10/30 00:49:55;;;;;;;107.97;17.60;;;;;;;10.29;100.00;99375.47;5058852;28;20476;-69
2022/10/30 00:52:25;;;;;;;76.95;14.88;;;;;;;10.28;100.00;99365.19;5055414;28;20056;-71
2022/10/30 00:54:53;;;;;;;102.63;16.83;;;;;;;10.40;100.00;99383.06;5038484;28;20484;-71
2022/10/30 00:57:19;;;;;;;96.82;15.82;;;;;;;10.42;100.00;99387.34;5055851;28;20039;-70
2022/10/30 00:59:45;;;;;;;218.77;22.42;;;;;;;10.16;100.00;99349.91;5054463;28;20051;-71
2022/10/30 01:02:11;;;;;;;182.65;20.30;;;;;;;10.36;100.00;99382.25;5055852;28;20589;-67
2022/10/30 01:04:39;;;;;;;152.73;16.73;;;;;;;10.34;100.00;99383.13;5058412;28;20036;-69
2022/10/30 01:07:11;;;;;;;224.50;21.60;;;;;;;10.33;100.00;99377.13;5043000;28;20079;-70
2022/10/30 01:09:39;;;;;;;110.47;17.35;;;;;;;10.32;100.00;99378.00;5039969;28;20043;-70
2022/10/30 01:12:06;;;;;;;185.18;20.33;;;;;;;10.26;100.00;99364.38;5057559;28;20040;-70
2022/10/30 01:14:34;;;;;;;259.08;24.95;;;;;;;10.26;100.00;99374.63;5025167;28;20079;-68
2022/10/30 01:17:21;;;;;;;211.10;20.98;;;;;;;10.19;100.00;99360.97;5062662;28;20048;-70
2022/10/30 01:19:59;;;;;;;181.18;20.58;;;;;;;10.16;100.00;99365.28;5059360;28;20073;-70
2022/10/30 01:22:36;;;;;;;116.97;16.15;;;;;;;10.18;100.00;99363.56;5061076;28;20048;-68
2022/10/30 01:25:36;;;;;;;78.68;13.88;;;;;;;10.16;100.00;99365.28;5044033;28;20611;-70
2022/10/30 01:28:24;;;;;;;114.60;19.90;;;;;;;10.19;100.00;99363.53;5044496;28;20041;-71
2022/10/30 01:31:12;;;;;;;180.50;20.35;;;;;;;10.17;100.00;99369.56;5057740;28;20379;-70
2022/10/30 01:33:53;;;;;;;141.85;17.15;;;;;;;10.15;100.00;99364.41;5039499;28;20139;-70
2022/10/30 01:36:28;;;;;;;74.93;15.55;;;;;;;10.12;100.00;99361.00;5061586;28;20120;-69
2022/10/30 01:38:58;;;;;;;57.92;16.38;;;;;;;10.08;100.00;99360.16;5045536;28;20068;-70
2022/10/30 01:41:25;;;;;;;76.20;16.23;;;;;;;9.99;100.00;99350.81;5041249;28;20363;-70
2022/10/30 01:43:56;;;;;;;69.50;15.95;;;;;;;9.92;100.00;99331.22;5058838;28;20037;-68
2022/10/30 01:46:50;;;;;;;77.97;15.63;;;;;;;10.00;100.00;99351.69;5061616;28;20086;-71
2022/10/30 01:49:20;;;;;;;108.45;17.83;;;;;;;9.96;100.00;99348.28;5042951;28;20044;-68
2022/10/30 01:52:12;;;;;;;30.38;11.70;;;;;;;9.96;100.00;99345.72;5044054;28;20167;-70
2022/10/30 01:55:08;;;;;;;82.40;14.57;;;;;;;9.66;100.00;99332.19;5062206;28;20043;-69
2022/10/30 01:57:58;;;;;;;106.63;18.60;;;;;;;9.80;100.00;99350.94;5037548;28;20048;-71
2022/10/30 02:00:26;;;;;;;59.28;14.20;;;;;;;9.78;100.00;99342.38;5042667;28;20040;-71
2022/10/30 02:02:52;;;;;;;85.05;17.20;;;;;;;9.75;100.00;99327.03;5058025;28;20672;-70
2022/10/30 02:05:37;;;;;;;173.90;20.65;;;;;;;9.78;100.00;99340.69;5040706;28;20536;-70
2022/10/30 02:08:04;;;;;;;110.32;17.40;;;;;;;9.67;100.00;99323.66;5060560;28;20116;-70
2022/10/30 02:10:30;;;;;;;68.28;15.93;;;;;;;9.72;100.00;99333.00;5044299;28;20043;-69
2022/10/30 02:12:57;;;;;;;116.07;18.52;;;;;;;9.63;100.00;99330.53;5042472;28;20052;-68
2022/10/30 02:15:23;;;;;;;68.78;14.93;;;;;;;9.72;100.00;99345.81;5056521;28;20849;-69
2022/10/30 02:17:49;;;;;;;62.60;13.43;;;;;;;9.73;100.00;99333.88;5040481;28;20052;-69
2022/10/30 02:20:18;;;;;;;125.30;17.33;;;;;;;9.62;100.00;99328.81;5059247;28;20602;-69
2022/10/30 02:22:44;;;;;;;114.57;15.55;;;;;;;9.55;100.00;99327.97;5061810;28;20041;-71
2022/10/30 02:25:10;;;;;;;100.00;14.35;;;;;;;9.58;100.00;99329.69;5061777;28;20036;-70
2022/10/30 02:27:35;;;;;;;114.85;14.93;;;;;;;9.57;100.00;99323.69;5044186;28;20044;-71
2022/10/30 02:30:01;;;;;;;138.35;17.45;;;;;;;9.42;100.00;99312.69;5060040;28;20601;-69
2022/10/30 02:32:26;;;;;;;20.88;10.90;;;;;;;9.55;100.00;99327.09;5060929;28;20097;-70
2022/10/30 02:34:53;;;;;;;34.35;11.80;;;;;;;9.52;100.00;99320.31;5031935;28;20327;-68
2022/10/30 02:37:19;;;;;;;79.38;14.45;;;;;;;9.40;100.00;99320.34;5056643;28;20036;-70
2022/10/30 02:39:44;;;;;;;63.92;14.40;;;;;;;9.42;100.00;99326.31;5039973;28;20045;-69
2022/10/30 02:42:10;;;;;;;91.72;16.40;;;;;;;9.31;100.00;99310.13;5043751;28;20135;-70
2022/10/30 02:44:36;;;;;;;37.72;13.40;;;;;;;9.42;100.00;99326.31;5059704;28;20441;-69
2022/10/30 02:47:02;;;;;;;44.83;12.55;;;;;;;9.45;100.00;99325.47;5060067;28;20123;-68
2022/10/30 02:49:27;;;;;;;52.60;13.07;;;;;;;9.46;100.00;99327.16;5060456;28;20036;-68
2022/10/30 02:51:53;;;;;;;64.50;11.70;;;;;;;9.41;100.00;99319.50;5058713;28;20579;-68
2022/10/30 02:54:18;;;;;;;75.95;13.60;;;;;;;9.39;100.00;99315.22;5061090;28;20055;-70
2022/10/30 02:56:44;;;;;;;73.32;12.93;;;;;;;9.34;100.00;99316.94;5040411;28;20078;-71
2022/10/30 02:59:10;;;;;;;56.75;12.10;;;;;;;9.30;100.00;99313.53;5057478;28;20356;-71
2022/10/30 03:01:36;;;;;;;61.40;11.05;;;;;;;9.31;100.00;99319.53;5037090;28;20130;-68
2022/10/30 03:04:02;;;;;;;72.65;13.07;;;;;;;9.26;100.00;99316.13;5037257;28;20491;-68
2022/10/30 03:06:27;;;;;;;79.00;13.80;;;;;;;9.11;100.00;99294.84;5056718;28;20386;-67
2022/10/30 03:08:54;;;;;;;72.05;11.90;;;;;;;9.13;100.00;99321.28;5040768;28;20036;-70
2022/10/30 03:11:21;;;;;;;32.35;10.85;;;;;;;9.02;100.00;99304.25;5057862;28;20056;-68
2022/10/30 03:13:47;;;;;;;111.20;15.00;;;;;;;9.06;100.00;99329.81;5055903;28;20036;-69
2022/10/30 03:16:16;;;;;;;97.07;12.80;;;;;;;9.07;100.00;99313.63;5042074;28;20036;-67
2022/10/30 03:18:42;;;;;;;59.78;13.10;;;;;;;8.91;100.00;99308.53;5041110;28;21732;-68
2022/10/30 03:21:12;;;;;;;81.47;13.13;;;;;;;8.98;100.00;99333.25;5044078;28;20044;-71
2022/10/30 03:23:38;;;;;;;71.78;12.35;;;;;;;8.88;100.00;99324.72;5059995;28;20041;-73
2022/10/30 03:26:04;;;;;;;93.50;13.95;;;;;;;8.90;100.00;99340.94;5042196;28;20452;-74
2022/10/30 03:28:35;;;;;;;140.50;20.40;;;;;;;8.84;100.00;99337.50;5061439;28;20079;-73
2022/10/30 03:31:07;;;;;;;90.20;12.98;;;;;;;8.79;100.00;99337.50;5043175;28;20036;-74
2022/10/30 03:33:34;;;;;;;87.55;13.80;;;;;;;8.63;100.00;99317.91;5058657;28;20036;-71
2022/10/30 03:36:00;;;;;;;29.20;10.90;;;;;;;8.85;100.00;99342.63;5038413;28;20051;-74
2022/10/30 03:38:27;;;;;;;62.17;12.70;;;;;;;8.77;100.00;99338.38;5059004;28;20032;-74
2022/10/30 03:40:53;;;;;;;43.97;11.15;;;;;;;8.75;100.00;99342.63;5028644;28;20841;-74
2022/10/30 03:43:18;;;;;;;91.70;12.32;;;;;;;8.64;100.00;99337.53;5040957;28;20448;-74
2022/10/30 03:45:49;;;;;;;72.93;12.52;;;;;;;8.61;100.00;99343.47;5040157;28;20052;-71
2022/10/30 03:48:15;;;;;;;46.13;12.77;;;;;;;8.56;100.00;99337.53;5021141;28;20044;-73
2022/10/30 03:50:43;;;;;;;50.83;12.63;;;;;;;8.48;100.00;99330.72;5038191;28;20045;-76
2022/10/30 03:53:09;;;;;;;19.20;11.55;;;;;;;8.57;100.00;99346.06;5041447;28;20071;-73
2022/10/30 03:55:34;;;;;;;41.60;12.18;;;;;;;8.55;100.00;99351.16;5042152;28;20102;-76
2022/10/30 03:58:00;;;;;;;57.63;12.05;;;;;;;8.47;100.00;99344.34;5039435;28;20036;-76
2022/10/30 04:00:26;;;;;;;73.53;14.10;;;;;;;8.41;100.00;99328.97;5038624;28;20040;-75
2022/10/30 04:02:54;;;;;;;88.05;12.85;;;;;;;8.47;100.00;99347.75;5041633;28;20139;-74
2022/10/30 04:05:26;;;;;;;123.63;14.98;;;;;;;8.42;100.00;99343.47;5039058;28;20127;-76
2022/10/30 04:07:58;;;;;;;115.90;16.10;;;;;;;8.41;100.00;99339.19;5054144;28;20265;-75
2022/10/30 04:10:25;;;;;;;152.77;16.67;;;;;;;8.19;100.00;99312.75;5040883;28;20101;-72
2022/10/30 04:12:58;;;;;;;129.23;15.95;;;;;;;8.23;100.00;99322.97;5036630;28;20046;-64
2022/10/30 04:15:23;;;;;;;113.65;14.85;;;;;;;8.25;100.00;99326.41;5038164;28;20047;-65
2022/10/30 04:17:52;;;;;;;295.98;26.23;;;;;;;8.25;100.00;99338.31;5037920;28;20037;-64
2022/10/30 04:20:20;;;;;;;255.45;23.35;;;;;;;8.23;100.00;99335.75;5041195;28;20028;-61
2022/10/30 04:22:46;;;;;;;129.43;15.38;;;;;;;8.28;100.00;99328.09;5058395;28;20048;-62
2022/10/30 04:25:16;;;;;;;162.57;18.48;;;;;;;8.30;100.00;99335.78;5026816;28;20040;-61
2022/10/30 04:27:43;;;;;;;148.45;19.33;;;;;;;8.19;100.00;99315.28;5059257;28;20044;-78
2022/10/30 04:30:11;;;;;;;153.80;17.73;;;;;;;8.22;100.00;99331.50;5058970;28;20041;-61
2022/10/30 04:32:50;;;;;;;127.40;15.55;;;;;;;8.15;100.00;99324.66;5057614;28;20037;-61
2022/10/30 04:35:19;;;;;;;69.07;13.57;;;;;;;8.17;100.00;99325.53;5041997;28;20043;-59
2022/10/30 04:37:54;;;;;;;27.83;9.57;;;;;;;8.21;100.00;99342.56;5045033;28;20048;-59
2022/10/30 04:40:22;;;;;;;17.95;8.70;;;;;;;8.19;100.00;99330.63;5033148;28;20545;-60
2022/10/30 04:42:53;;;;;;;28.23;9.40;;;;;;;8.23;100.00;99345.94;5023627;28;20053;-60
2022/10/30 04:45:19;;;;;;;28.73;8.93;;;;;;;8.30;100.00;99346.00;5058318;28;20573;-62
2022/10/30 04:47:45;;;;;;;56.42;11.35;;;;;;;8.26;100.00;99345.13;5043970;28;20789;-60
2022/10/30 04:50:11;;;;;;;115.72;13.77;;;;;;;8.30;100.00;99346.00;5026160;28;20036;-61
2022/10/30 04:52:37;;;;;;;95.32;13.90;;;;;;;8.35;100.00;99347.72;5027384;28;20076;-62
2022/10/30 04:55:03;;;;;;;138.38;15.35;;;;;;;8.34;100.00;99347.72;5059475;28;20068;-61
2022/10/30 04:57:30;;;;;;;117.45;15.80;;;;;;;8.22;100.00;99333.19;5056626;28;20064;-58
2022/10/30 04:59:56;;;;;;;151.02;15.80;;;;;;;8.36;100.00;99343.47;5056675;28;20491;-60
2022/10/30 05:02:22;;;;;;;47.83;10.93;;;;;;;8.31;100.00;99333.25;5041342;28;20056;-61
2022/10/30 05:04:48;;;;;;;103.30;13.63;;;;;;;8.41;100.00;99344.31;5043698;28;20047;-60
2022/10/30 05:07:14;;;;;;;82.18;10.93;;;;;;;8.32;100.00;99345.16;5061930;28;20459;-58
2022/10/30 05:09:40;;;;;;;171.93;16.20;;;;;;;8.27;100.00;99352.78;5063253;28;20043;-60
2022/10/30 05:12:06;;;;;;;242.70;19.08;;;;;;;8.13;100.00;99334.03;5063605;28;20040;-60
2022/10/30 05:14:40;;;;;;;131.40;13.50;;;;;;;8.21;100.00;99352.78;5060724;28;20487;-61
2022/10/30 05:17:06;;;;;;;51.55;10.02;;;;;;;8.27;100.00;99352.78;5065433;28;20045;-59
2022/10/30 05:19:32;;;;;;;171.88;18.20;;;;;;;8.33;100.00;99351.13;5044667;28;20502;-59
2022/10/30 05:21:58;;;;;;;161.20;15.55;;;;;;;8.28;100.00;99349.38;5037784;28;20067;-63
2022/10/30 05:24:23;;;;;;;186.32;18.05;;;;;;;8.25;100.00;99354.50;5059907;28;20047;-59
2022/10/30 05:26:49;;;;;;;219.18;18.17;;;;;;;8.23;100.00;99351.06;5059508;28;20055;-60
2022/10/30 05:29:16;;;;;;;162.82;14.02;;;;;;;8.30;100.00;99357.09;5059528;28;20504;-59
2022/10/30 05:31:42;;;;;;;85.68;10.80;;;;;;;8.31;100.00;99360.50;5059467;28;20043;-59
2022/10/30 05:34:14;;;;;;;66.97;10.55;;;;;;;8.34;100.00;99369.00;5061518;28;20105;-60
2022/10/30 05:36:40;;;;;;;104.68;11.63;;;;;;;8.15;100.00;99334.03;5024124;28;20542;-59
2022/10/30 05:39:07;;;;;;;77.60;11.63;;;;;;;8.31;100.00;99350.28;5038824;28;20039;-60
2022/10/30 05:41:36;;;;;;;119.88;11.85;;;;;;;8.43;100.00;99366.47;5039686;28;20041;-59
2022/10/30 05:44:02;;;;;;;75.50;10.93;;;;;;;8.46;100.00;99365.63;5042285;28;20047;-60
2022/10/30 05:46:28;;;;;;;123.57;15.15;;;;;;;8.44;100.00;99362.22;5040393;28;20536;-60
2022/10/30 05:48:56;;;;;;;102.78;11.85;;;;;;;8.45;100.00;99366.47;5057897;28;20384;-60
2022/10/30 05:51:23;;;;;;;58.30;10.30;;;;;;;8.51;100.00;99369.03;5042039;28;20040;-61
2022/10/30 05:53:53;;;;;;;146.20;14.70;;;;;;;8.36;100.00;99366.47;5043014;28;20268;-61
2022/10/30 05:56:23;;;;;;;120.32;13.63;;;;;;;8.23;100.00;99360.47;5041166;28;20374;-61
2022/10/30 05:58:49;;;;;;;115.50;11.95;;;;;;;8.16;100.00;99357.03;5039281;28;20080;-61
2022/10/30 06:01:15;;;;;;;110.28;13.23;;;;;;;8.20;100.00;99368.09;5039078;28;20503;-61
2022/10/30 06:03:44;;;;;;;155.10;16.15;;;;;;;8.07;100.00;99367.22;5041628;28;20426;-61
2022/10/30 06:06:11;;;;;;;103.70;11.93;;;;;;;7.96;100.00;99361.22;5045133;28;20055;-61
2022/10/30 06:08:36;;;;;;;40.80;9.38;;;;;;;8.08;100.00;99384.25;5060588;28;20387;-61
2022/10/30 06:11:15;;;;;;;134.45;12.32;;;;;;;8.00;100.00;99370.59;5042883;28;20124;-60
2022/10/30 06:13:47;;;;;;;73.30;9.02;;;;;;;7.84;100.00;99350.13;5041840;28;20049;-69
2022/10/30 06:16:15;;;;;;;37.80;8.07;;;;;;;7.89;100.00;99371.41;5060796;28;20036;-71
2022/10/30 06:19:00;;;;;;;13.70;7.25;;;;;;;7.71;100.00;99372.19;5003794;28;20044;-69
2022/10/30 06:21:27;;;;;;;9.98;7.97;;;;;;;7.79;100.00;99375.63;5038958;28;20051;-69
2022/10/30 06:24:31;;;;;;;20.38;9.15;;;;;;;7.74;100.00;99383.25;5056398;28;20116;-71
2022/10/30 06:27:13;;;;;;;38.95;9.55;;;;;;;7.72;100.00;99387.50;5045753;28;20041;-69
2022/10/30 06:29:38;;;;;;;33.33;9.02;;;;;;;7.76;100.00;99390.94;5042277;28;20479;-70
2022/10/30 06:32:04;;;;;;;26.83;9.45;;;;;;;7.77;100.00;99385.81;5041999;28;20047;-70
2022/10/30 06:34:31;;;;;;;24.20;8.77;;;;;;;7.64;100.00;99371.31;5043602;28;20044;-70
2022/10/30 06:36:56;;;;;;;10.70;8.90;;;;;;;7.83;100.00;99400.31;5041632;28;20407;-67
2022/10/30 06:39:22;;;;;;;14.63;8.25;;;;;;;7.91;100.00;99402.91;5056764;28;20037;-67
2022/10/30 06:42:08;;;;;;;;;;;;;;;7.93;100.00;99398.66;5057250;28;20040;-70
2022/10/30 06:44:47;;;;;;;47.03;10.05;;;;;;;8.14;100.00;99407.25;5055352;28;19927;-70
2022/10/30 06:47:14;;;;;;;53.63;9.13;;;;;;;8.12;100.00;99408.94;5060517;28;20067;-69
2022/10/30 06:49:40;;;;;;;10.63;7.35;;;;;;;8.19;100.00;99408.09;5056124;28;20064;-70
2022/10/30 06:52:06;;;;;;;18.52;7.78;;;;;;;8.12;100.00;99388.50;5039616;28;20131;-70
2022/10/30 06:54:32;;;;;;;22.27;8.10;;;;;;;8.08;100.00;99378.28;5023347;28;20163;-68
2022/10/30 06:56:58;;;;;;;49.65;9.63;;;;;;;8.34;100.00;99401.38;5057616;28;20067;-68
2022/10/30 06:59:43;;;;;;;42.47;9.80;;;;;;;8.16;100.00;99380.00;5037963;28;20041;-69
2022/10/30 07:02:24;;;;;;;52.30;8.68;;;;;;;8.21;100.00;99401.31;5056681;28;20049;-68
2022/10/30 07:04:54;;;;;;;52.05;10.02;;;;;;;8.39;100.00;99405.66;5037564;28;20044;-68
2022/10/30 07:07:20;;;;;;;74.85;9.80;;;;;;;8.46;100.00;99401.38;5060212;28;20048;-70
2022/10/30 07:09:45;;;;;;;54.60;10.07;;;;;;;8.47;100.00;99403.09;5042202;28;20442;-70
2022/10/30 07:12:12;;;;;;;55.95;10.15;;;;;;;8.60;100.00;99407.38;5036411;28;20036;-68
2022/10/30 07:14:57;;;;;;;68.78;10.90;;;;;;;8.56;100.00;99416.75;5060401;28;20133;-70
2022/10/30 07:17:41;;;;;;;77.47;10.30;;;;;;;8.52;100.00;99420.16;5026182;28;20056;-69
2022/10/30 07:20:15;;;;;;;56.13;9.85;;;;;;;8.53;100.00;99414.16;5055301;28;20336;-69
2022/10/30 07:22:41;;;;;;;60.75;10.25;;;;;;;8.46;100.00;99414.16;5040535;28;20698;-69
2022/10/30 07:25:07;;;;;;;38.20;9.80;;;;;;;8.66;100.00;99409.94;5042234;28;20064;-61
2022/10/30 07:27:52;;;;;;;57.00;8.38;;;;;;;8.58;100.00;99409.06;5039915;28;20044;-61
2022/10/30 07:30:47;;;;;;;47.28;8.73;;;;;;;8.74;100.00;99400.59;5027470;28;20748;-60
2022/10/30 07:33:23;;;;;;;43.58;9.27;;;;;;;8.73;100.00;99395.47;5042320;28;20128;-61
2022/10/30 07:36:03;;;;;;;34.58;9.30;;;;;;;8.89;100.00;99397.16;5056593;28;20810;-61
2022/10/30 07:39:01;;;;;;;17.30;7.85;;;;;;;8.88;100.00;99388.66;5040746;28;20041;-61
2022/10/30 07:41:55;;;;;;;10.00;7.53;;;;;;;8.82;100.00;99372.47;5036100;28;20059;-61
2022/10/30 07:44:39;;;;;;;12.95;9.43;;;;;;;8.82;100.00;99349.47;5066135;28;20407;-62
2022/10/30 07:47:15;;;;;;;13.35;9.85;;;;;;;9.19;100.00;99363.91;5036185;28;20454;-62
2022/10/30 07:50:21;;;;;;;15.13;9.38;;;;;;;9.34;100.00;99335.72;4971616;28;20067;-61
2022/10/30 07:52:46;;;;;;;12.60;9.20;;;;;;;9.31;100.00;99343.41;4969126;28;20046;-61
2022/10/30 07:55:15;;;;;;;10.75;7.78;;;;;;;9.56;100.00;99362.09;4957011;28;20069;-60
2022/10/30 07:57:47;;;;;;;9.13;7.80;;;;;;;9.48;100.00;99335.69;4975900;28;20560;-61
2022/10/30 08:00:31;;;;;;;7.65;6.93;;;;;;;9.39;100.00;99333.13;4973961;28;20187;-59
2022/10/30 08:03:07;;;;;;;8.88;7.97;;;;;;;9.52;100.00;99337.38;4954696;28;20054;-58
2022/10/30 08:05:40;;;;;;;9.68;8.40;;;;;;;9.78;100.00;99339.81;4954727;28;20137;-58
2022/10/30 08:08:08;;;;;;;6.55;5.55;;;;;;;10.07;100.00;99341.38;4956065;28;20061;-59
2022/10/30 08:10:35;;;;;;;8.50;6.13;;;;;;;10.23;100.00;99344.72;4954318;28;20050;-59
2022/10/30 08:13:01;;;;;;;8.07;5.13;;;;;;;10.75;100.00;99360.59;4970396;28;20137;-59
2022/10/30 08:15:27;;;;;;;6.03;5.53;;;;;;;11.00;100.00;99348.41;4953411;28;20062;-59
2022/10/30 08:17:54;;;;;;;6.10;5.32;;;;;;;11.26;100.00;99343.03;4953424;28;20478;-60
2022/10/30 08:20:21;;;;;;;8.05;7.35;;;;;;;11.39;100.00;99339.47;4984504;28;20059;-60
2022/10/30 08:22:50;;;;;;;6.38;5.20;;;;;;;11.51;100.00;99321.34;5058458;28;20952;-59
2022/10/30 08:25:27;;;;;;;6.13;5.60;;;;;;;11.54;100.00;99352.16;5041673;28;20051;-58
2022/10/30 08:28:04;;;;;;;5.20;4.78;;;;;;;11.75;100.00;99333.91;5056741;28;20039;-58
2022/10/30 08:30:35;;;;;;;5.57;4.82;;;;;;;11.93;100.00;99350.81;5040247;28;20037;-59
2022/10/30 08:33:05;;;;;;;7.57;6.80;;;;;;;12.06;100.00;99348.94;5035396;28;20060;-59
2022/10/30 08:35:51;;;;;;;13.43;9.77;;;;;;;12.20;100.00;99344.47;5055357;28;20106;-59
2022/10/30 08:38:18;;;;;;;8.57;7.72;;;;;;;12.18;100.00;99341.06;5054833;28;20258;-58
2022/10/30 08:40:47;;;;;;;7.53;6.93;;;;;;;12.10;100.00;99337.75;5037752;28;20055;-59
2022/10/30 08:43:14;;;;;;;6.22;5.63;;;;;;;12.09;100.00;99330.94;5040412;28;20047;-58
2022/10/30 08:45:40;;;;;;;6.68;5.97;;;;;;;12.18;100.00;99336.78;5040622;28;20033;-61
2022/10/30 08:48:14;;;;;;;8.40;7.50;;;;;;;12.41;100.00;99338.16;5040432;28;20047;-58
2022/10/30 08:50:42;;;;;;;7.28;6.35;;;;;;;12.31;100.00;99346.00;5059244;28;20044;-59
2022/10/30 08:53:13;;;;;;;7.43;6.45;;;;;;;12.46;100.00;99337.22;5031905;28;20044;-59
2022/10/30 08:55:40;;;;;;;7.65;6.95;;;;;;;12.60;100.00;99340.41;5042951;28;20157;-58
2022/10/30 08:58:12;;;;;;;8.70;7.78;;;;;;;12.56;100.00;99338.78;5058163;28;20064;-59
2022/10/30 09:00:37;;;;;;;8.00;7.20;;;;;;;12.65;100.00;99314.63;5037480;28;20044;-58
2022/10/30 09:03:25;;;;;;;9.52;7.55;;;;;;;12.96;100.00;99330.41;5053866;28;20041;-59
2022/10/30 09:06:01;;;;;;;6.40;5.80;;;;;;;13.11;100.00;99343.88;5054953;28;20206;-59
2022/10/30 09:08:29;;;;;;;5.85;5.38;;;;;;;12.93;100.00;99336.47;5056795;28;20330;-59
2022/10/30 09:11:09;;;;;;;7.45;6.57;;;;;;;12.85;100.00;99337.47;5040301;28;20043;-60
2022/10/30 09:13:35;;;;;;;8.43;6.60;;;;;;;12.92;100.00;99339.91;5036276;28;20119;-60
2022/10/30 09:16:03;;;;;;;8.18;7.32;;;;;;;13.01;100.00;99341.47;5054154;28;20441;-61
2022/10/30 09:18:31;;;;;;;7.20;6.60;;;;;;;13.13;100.00;99338.72;5054491;28;20048;-59
2022/10/30 09:20:57;;;;;;;7.55;6.93;;;;;;;12.64;100.00;99326.66;5036389;28;20249;-59
2022/10/30 09:23:23;;;;;;;8.38;7.57;;;;;;;12.94;100.00;99347.63;5039710;28;20503;-60
2022/10/30 09:25:56;;;;;;;8.55;6.80;;;;;;;13.05;100.00;99330.25;5020241;28;20305;-60
2022/10/30 09:28:41;;;;;;;6.93;6.28;;;;;;;13.28;100.00;99349.56;5057947;28;20052;-62
2022/10/30 09:31:27;;;;;;;7.75;6.93;;;;;;;13.19;100.00;99343.75;5061043;28;20044;-61
2022/10/30 09:33:53;;;;;;;8.18;6.93;;;;;;;13.40;100.00;99345.09;5043870;28;20881;-61
2022/10/30 09:36:46;;;;;;;6.47;5.82;;;;;;;13.22;100.00;99326.53;5030037;28;20053;-61
2022/10/30 09:39:12;;;;;;;8.48;7.60;;;;;;;13.19;100.00;99349.78;5043816;28;20044;-60
2022/10/30 09:41:53;;;;;;;9.05;7.35;;;;;;;13.15;100.00;99347.28;5043150;28;20056;-60
2022/10/30 09:44:56;;;;;;;8.43;6.65;;;;;;;12.95;100.00;99346.72;5041725;28;20415;-60
2022/10/30 09:47:37;;;;;;;9.32;8.35;;;;;;;12.76;100.00;99346.19;5041553;28;20062;-59
2022/10/30 09:50:24;;;;;;;8.23;7.53;;;;;;;12.88;100.00;99348.56;5060030;28;20041;-62
2022/10/30 09:53:26;;;;;;;9.85;6.63;;;;;;;12.84;100.00;99352.06;5043376;28;20028;-62
2022/10/30 09:56:14;;;;;;;7.30;6.53;;;;;;;13.05;100.00;99353.41;5039933;28;20032;-60
2022/10/30 09:59:01;;;;;;;7.18;6.50;;;;;;;13.05;100.00;99330.25;5059642;28;20140;-60
2022/10/30 10:01:33;;;;;;;7.22;6.53;;;;;;;13.08;100.00;99348.19;5058828;28;20135;-60
2022/10/30 10:04:25;;;;;;;7.35;6.63;;;;;;;13.16;100.00;99349.81;5040183;28;20028;-60
2022/10/30 10:07:19;;;;;;;7.00;6.40;;;;;;;13.25;100.00;99347.06;5057857;28;20439;-60
2022/10/30 10:09:56;;;;;;;9.05;7.35;;;;;;;13.35;100.00;99341.75;5058468;28;20502;-59
2022/10/30 10:12:54;;;;;;;11.50;8.35;;;;;;;12.95;100.00;99341.56;5045415;28;20047;-60
2022/10/30 10:15:32;;;;;;;9.82;7.53;;;;;;;13.21;100.00;99342.84;5060174;28;20040;-60
2022/10/30 10:18:01;;;;;;;9.63;6.72;;;;;;;13.48;100.00;99340.63;5060249;28;20043;-60
2022/10/30 10:20:41;;;;;;;7.82;7.05;;;;;;;13.23;100.00;99340.25;5060485;28;20106;-59
2022/10/30 10:23:34;;;;;;;10.43;7.68;;;;;;;13.30;100.00;99338.41;5059722;28;20036;-60
2022/10/30 10:26:13;;;;;;;8.93;7.20;;;;;;;13.06;100.00;99331.94;5050891;28;20182;-60
2022/10/30 10:28:58;;;;;;;8.02;7.32;;;;;;;13.44;100.00;99334.69;5060324;28;20028;-61
2022/10/30 10:31:38;;;;;;;7.88;7.05;;;;;;;13.60;100.00;99333.53;5057257;28;20030;-62
2022/10/30 10:34:15;;;;;;;8.70;7.88;;;;;;;13.76;100.00;99336.63;5057267;28;20060;-62
2022/10/30 10:36:45;;;;;;;7.82;7.13;;;;;;;13.73;100.00;99322.09;5039666;28;20040;-60
2022/10/30 10:39:40;;;;;;;9.52;6.75;;;;;;;13.70;100.00;99335.03;5058343;28;20032;-62
2022/10/30 10:42:24;;;;;;;8.20;7.40;;;;;;;13.72;100.00;99330.69;5057836;28;20192;-61
2022/10/30 10:45:15;;;;;;;12.20;10.60;;;;;;;13.88;100.00;99318.31;5058914;28;20559;-60
2022/10/30 10:47:59;;;;;;;9.50;7.88;;;;;;;13.79;100.00;99299.66;5061001;28;20032;-60
2022/10/30 10:50:33;;;;;;;9.63;8.00;;;;;;;13.92;100.00;99317.38;5057742;28;20116;-59
2022/10/30 10:53:09;;;;;;;8.80;7.63;;;;;;;14.01;100.00;99306.88;5056466;28;20152;-59
2022/10/30 10:55:37;;;;;;;8.35;7.55;;;;;;;13.93;100.00;99290.72;5058601;28;20064;-59
2022/10/30 10:58:20;;;;;;;8.25;7.47;;;;;;;13.78;100.00;99303.09;5059903;28;20060;-61
2022/10/30 11:00:46;;;;;;;10.40;7.70;;;;;;;13.88;100.00;99289.97;5060094;28;20040;-59
2022/10/30 11:03:28;;;;;;;8.65;7.80;;;;;;;14.17;100.00;99287.59;5059888;28;20702;-59
2022/10/30 11:06:00;;;;;;;11.70;9.43;;;;;;;14.48;100.00;99305.81;5060135;28;20494;-61
2022/10/30 11:08:29;;;;;;;11.35;10.35;;;;;;;14.58;100.00;99307.31;5058930;28;20032;-60
2022/10/30 11:10:57;;;;;;;10.63;9.63;;;;;;;14.67;100.00;99311.38;5059796;28;20044;-58
2022/10/30 11:13:30;;;;;;;9.40;7.70;;;;;;;14.64;100.00;99308.88;5058506;28;20075;-60
2022/10/30 11:16:17;;;;;;;9.40;8.45;;;;;;;14.65;100.00;99313.16;5056316;28;20953;-59
2022/10/30 11:18:46;;;;;;;9.30;8.15;;;;;;;14.52;100.00;99312.59;5057446;28;20040;-60
2022/10/30 11:21:18;;;;;;;8.77;7.85;;;;;;;14.58;100.00;99307.31;5059187;28;20139;-60
2022/10/30 11:23:46;;;;;;;10.60;8.50;;;;;;;14.68;100.00;99299.34;5059052;28;20048;-60
2022/10/30 11:26:18;;;;;;;10.18;8.95;;;;;;;14.48;100.00;99305.81;5057973;28;20528;-59
2022/10/30 11:28:53;;;;;;;9.55;7.85;;;;;;;14.71;100.00;99300.09;5058535;28;20041;-61
2022/10/30 11:31:36;;;;;;;10.13;8.50;;;;;;;14.68;100.00;99301.91;5058127;28;20434;-59
2022/10/30 11:34:17;;;;;;;10.60;9.02;;;;;;;14.77;100.00;99293.91;5059526;28;20032;-60
2022/10/30 11:36:43;;;;;;;12.35;8.73;;;;;;;14.74;100.00;99291.44;5058473;28;20750;-60
2022/10/30 11:39:33;;;;;;;9.63;7.68;;;;;;;14.85;100.00;99289.44;5058062;28;20059;-59